Time;durP1;ratioP1;P1;durP2;ratioP2;P2;SDS_P1;SDS_P2;PMS_P1;PMS_P2;Temp;Humidity;BMP_temperature;BMP_pressure;BME280_temperature;BME280_humidity;BME280_pressure;Samples;Min_cycle;Max_cycle;Signal;HPM_P1;HPM_P2
2022/12/02 00:00:28;;;;;;;62.50;25.48;;;;;;;3.21;97.72;101771.22;4978121;28;20101;-79
2022/12/02 00:02:56;;;;;;;64.80;26.88;;;;;;;3.30;98.67;101769.91;4986249;28;20134;-80
2022/12/02 00:05:31;;;;;;;60.35;24.85;;;;;;;3.26;98.20;101774.41;4988727;28;20035;-81
2022/12/02 00:08:00;;;;;;;62.67;26.98;;;;;;;3.24;98.21;101765.06;4988357;28;20078;-81
2022/12/02 00:10:34;;;;;;;63.35;26.52;;;;;;;3.22;98.48;101766.88;4988521;28;20153;-80
2022/12/02 00:13:10;;;;;;;61.83;24.80;;;;;;;3.24;98.39;101768.47;4988183;28;20098;-80
2022/12/02 00:15:41;;;;;;;64.20;26.40;;;;;;;3.19;98.28;101767.06;4976857;28;20046;-77
2022/12/02 00:18:09;;;;;;;61.30;26.00;;;;;;;3.15;98.42;101770.72;4977684;28;20055;-79
2022/12/02 00:20:38;;;;;;;60.30;26.50;;;;;;;3.15;98.62;101766.38;4977122;28;20043;-79
2022/12/02 00:23:05;;;;;;;61.97;26.77;;;;;;;3.12;98.79;101761.34;4975858;28;20149;-79
2022/12/02 00:25:31;;;;;;;59.10;25.45;;;;;;;3.14;99.06;101753.53;4976593;28;20474;-79
2022/12/02 00:27:59;;;;;;;61.75;26.77;;;;;;;3.17;99.15;101753.38;4976300;28;20426;-80
2022/12/02 00:30:25;;;;;;;64.70;28.13;;;;;;;3.13;98.93;101752.69;4976028;28;20051;-79
2022/12/02 00:32:53;;;;;;;66.03;27.08;;;;;;;3.19;98.58;101752.38;4974860;28;20651;-78
2022/12/02 00:35:19;;;;;;;67.30;27.50;;;;;;;3.16;98.93;101746.53;4974440;28;20087;-79
2022/12/02 00:37:47;;;;;;;64.63;27.30;;;;;;;3.16;98.76;101743.94;4973872;28;20089;-77
2022/12/02 00:40:14;;;;;;;58.08;26.33;;;;;;;3.18;99.40;101750.69;4975056;28;20129;-79
2022/12/02 00:42:41;;;;;;;58.05;27.10;;;;;;;3.16;98.56;101756.88;4975573;28;20106;-79
2022/12/02 00:47:54;;;;;;;56.60;25.73;;;;;;;3.08;98.34;101749.50;4977671;28;20058;-79
2022/12/02 00:50:21;;;;;;;53.28;24.10;;;;;;;3.09;98.65;101742.59;4981475;28;20054;-79
2022/12/02 00:52:49;;;;;;;52.20;23.92;;;;;;;3.05;98.30;101736.72;4974594;28;20053;-78
2022/12/02 00:55:16;;;;;;;51.90;23.65;;;;;;;3.03;98.29;101746.31;4974110;28;20582;-78
2022/12/02 00:57:42;;;;;;;54.50;23.75;;;;;;;3.06;97.45;101746.16;4971085;28;20146;-78
2022/12/02 01:00:10;;;;;;;57.55;24.80;;;;;;;3.13;98.27;101733.75;4983091;28;20059;-80
2022/12/02 01:02:37;;;;;;;49.42;24.63;;;;;;;3.03;97.61;101740.31;4981941;28;20081;-80
2022/12/02 01:05:05;;;;;;;49.35;22.67;;;;;;;3.03;98.22;101733.41;4980827;28;20082;-80
2022/12/02 01:07:32;;;;;;;50.00;24.05;;;;;;;2.97;98.04;101742.31;4980910;28;20139;-79
2022/12/02 01:10:00;;;;;;;46.17;22.38;;;;;;;2.96;97.94;101738.03;4980251;28;20137;-79
2022/12/02 01:12:27;;;;;;;47.17;22.42;;;;;;;2.96;97.30;101742.38;4974691;28;20078;-80
2022/12/02 01:14:54;;;;;;;50.90;21.92;;;;;;;2.97;98.05;101739.72;4977094;28;20178;-80
2022/12/02 01:17:20;;;;;;;51.47;23.55;;;;;;;2.94;97.74;101734.69;4976793;28;20051;-80
2022/12/02 01:19:47;;;;;;;43.05;20.55;;;;;;;2.83;97.95;101733.63;4976138;28;20474;-77
2022/12/02 01:22:13;;;;;;;45.15;22.98;;;;;;;2.89;97.87;101733.28;4974163;28;20138;-78
2022/12/02 01:24:40;;;;;;;43.60;21.63;;;;;;;2.94;97.52;101737.28;4974283;28;20149;-79
2022/12/02 01:27:08;;;;;;;34.60;19.17;;;;;;;2.90;97.64;101734.94;4975865;28;20054;-79
2022/12/02 01:29:35;;;;;;;37.30;19.40;;;;;;;2.81;97.68;101740.63;4975201;28;20097;-78
2022/12/02 01:32:01;;;;;;;40.85;19.10;;;;;;;2.87;97.54;101737.69;4974470;28;20091;-79
2022/12/02 01:34:28;;;;;;;43.42;21.42;;;;;;;2.84;96.96;101730.09;4974383;28;20509;-79
2022/12/02 01:36:54;;;;;;;45.10;20.35;;;;;;;2.80;96.98;101728.59;4974266;28;20050;-79
2022/12/02 01:39:24;;;;;;;42.15;20.88;;;;;;;2.79;96.79;101730.34;4975391;28;20051;-80
2022/12/02 01:41:50;;;;;;;38.50;18.90;;;;;;;2.81;96.98;101723.34;4976462;28;20051;-80
2022/12/02 01:44:19;;;;;;;43.65;20.63;;;;;;;2.88;96.51;101723.84;4979491;28;20114;-78
2022/12/02 01:46:45;;;;;;;37.17;19.55;;;;;;;2.81;96.42;101720.78;4977776;28;20057;-79
2022/12/02 01:49:12;;;;;;;38.85;18.85;;;;;;;2.92;96.03;101733.13;4977298;28;20090;-79
2022/12/02 01:51:39;;;;;;;34.47;17.50;;;;;;;2.79;95.73;101725.19;4977887;28;20093;-79
2022/12/02 01:54:05;;;;;;;34.50;18.40;;;;;;;2.81;96.06;101725.09;4975405;28;20078;-78
2022/12/02 01:56:32;;;;;;;34.05;18.25;;;;;;;2.89;96.29;101721.19;4975607;28;20133;-78
2022/12/02 01:58:59;;;;;;;32.75;17.25;;;;;;;2.91;95.93;101728.84;4977706;28;20078;-78
2022/12/02 02:01:29;;;;;;;33.03;17.60;;;;;;;2.90;95.73;101730.59;4975464;28;20085;-78
2022/12/02 02:03:56;;;;;;;34.70;18.00;;;;;;;2.92;95.54;101722.78;4974133;28;20086;-78
2022/12/02 02:08:53;;;;;;;30.75;16.98;;;;;;;2.94;95.02;101715.78;4995862;28;20050;-79
2022/12/02 02:11:20;;;;;;;33.20;17.17;;;;;;;2.94;94.99;101713.19;4996313;28;20065;-79
2022/12/02 02:13:47;;;;;;;32.35;17.42;;;;;;;2.96;95.27;101719.13;4995771;28;20106;-78
2022/12/02 02:16:14;;;;;;;34.70;17.25;;;;;;;2.93;95.02;101720.09;4980902;28;20105;-78
2022/12/02 02:18:42;;;;;;;34.65;17.05;;;;;;;2.97;95.00;101723.38;4981838;28;20054;-78
2022/12/02 02:21:15;;;;;;;34.03;17.55;;;;;;;2.92;95.30;101723.59;4983698;28;20458;-78
2022/12/02 02:23:43;;;;;;;34.70;17.45;;;;;;;2.90;95.78;101722.84;4983542;28;20078;-78
2022/12/02 02:26:10;;;;;;;33.90;17.85;;;;;;;2.90;95.53;101709.94;4983672;28;20142;-78
2022/12/02 02:28:37;;;;;;;34.70;17.38;;;;;;;2.85;95.32;101705.91;4982977;28;20130;-78
2022/12/02 02:31:04;;;;;;;35.17;17.63;;;;;;;2.89;95.73;101708.25;4995091;28;20077;-79
2022/12/02 02:33:33;;;;;;;33.95;18.02;;;;;;;2.92;96.02;101699.50;5002506;28;20054;-79
2022/12/02 02:36:01;;;;;;;36.83;19.58;;;;;;;2.89;95.90;101694.50;5003097;28;20524;-78
2022/12/02 02:38:29;;;;;;;38.83;20.00;;;;;;;2.92;95.94;101705.50;5002160;28;20078;-78
2022/12/02 02:40:57;;;;;;;38.45;19.10;;;;;;;2.94;96.45;101700.25;5003330;28;20481;-79
2022/12/02 02:43:27;;;;;;;42.45;20.98;;;;;;;2.94;95.83;101683.00;5004497;28;20089;-78
2022/12/02 02:45:54;;;;;;;38.55;18.95;;;;;;;2.96;95.86;101693.25;4995966;28;20494;-78
2022/12/02 02:48:22;;;;;;;42.15;20.63;;;;;;;3.02;95.76;101684.34;4980221;28;20070;-78
2022/12/02 02:50:49;;;;;;;41.03;20.25;;;;;;;2.94;96.32;101685.59;4980823;28;20129;-78
2022/12/02 02:53:18;;;;;;;46.92;21.13;;;;;;;2.96;96.35;101686.34;4998562;28;20488;-78
2022/12/02 02:55:45;;;;;;;45.35;21.90;;;;;;;2.97;96.93;101690.59;5001865;28;20050;-78
2022/12/02 02:58:19;;;;;;;51.58;23.42;;;;;;;2.99;96.59;101682.75;4997583;28;20584;-78
2022/12/02 03:00:48;;;;;;;46.30;22.08;;;;;;;2.94;96.53;101670.06;4998444;28;20133;-78
2022/12/02 03:03:18;;;;;;;57.17;25.83;;;;;;;3.03;97.31;101662.75;5003452;28;20074;-78
2022/12/02 03:05:45;;;;;;;50.38;24.60;;;;;;;3.00;97.06;101663.75;5001294;28;20069;-78
2022/12/02 03:08:12;;;;;;;50.83;23.60;;;;;;;2.97;97.80;101659.56;5001062;28;20144;-79
2022/12/02 03:10:39;;;;;;;47.50;23.00;;;;;;;2.87;97.47;101653.22;5006368;28;20074;-79
2022/12/02 03:13:06;;;;;;;55.97;24.05;;;;;;;2.90;97.14;101657.38;5006606;28;20077;-78
2022/12/02 03:15:34;;;;;;;52.70;24.70;;;;;;;2.97;97.16;101663.91;5003892;28;20129;-80
2022/12/02 03:18:01;;;;;;;50.60;23.60;;;;;;;2.98;96.80;101669.00;5005587;28;20089;-78
2022/12/02 03:20:28;;;;;;;42.75;21.02;;;;;;;3.05;97.31;101659.16;5003681;28;20101;-79
2022/12/02 03:22:55;;;;;;;53.95;24.67;;;;;;;2.98;97.07;101661.22;5007378;28;20118;-79
2022/12/02 03:25:22;;;;;;;52.22;23.73;;;;;;;2.92;96.75;101666.72;5006262;28;20077;-80
2022/12/02 03:27:49;;;;;;;49.42;23.48;;;;;;;2.90;96.91;101668.56;5004338;28;20086;-78
2022/12/02 03:30:15;;;;;;;53.13;24.58;;;;;;;2.90;96.53;101665.97;5002516;28;20077;-79
2022/12/02 03:32:43;;;;;;;50.03;22.80;;;;;;;2.95;97.36;101670.91;4984173;28;20590;-80
2022/12/02 03:35:10;;;;;;;48.30;23.67;;;;;;;2.93;97.17;101658.06;4984707;28;20110;-78
2022/12/02 03:37:37;;;;;;;51.33;23.52;;;;;;;2.94;97.32;101667.47;4984949;28;20187;-79
2022/12/02 03:40:04;;;;;;;47.58;22.80;;;;;;;2.93;96.58;101657.22;5002812;28;20133;-79
2022/12/02 03:42:31;;;;;;;52.63;22.95;;;;;;;2.90;97.13;101657.38;4990259;28;20110;-79
2022/12/02 03:44:58;;;;;;;50.05;21.77;;;;;;;2.90;96.52;101640.13;4984235;28;20141;-78
2022/12/02 03:47:24;;;;;;;50.47;23.63;;;;;;;2.84;97.08;101637.03;4989976;28;20407;-79
2022/12/02 03:49:52;;;;;;;50.58;22.75;;;;;;;2.88;97.10;101643.72;5003141;28;20110;-79
2022/12/02 03:52:19;;;;;;;52.20;23.35;;;;;;;2.84;97.11;101637.88;5001457;28;20085;-79
2022/12/02 03:54:46;;;;;;;48.30;23.25;;;;;;;2.90;96.87;101627.19;5003454;28;20050;-79
2022/12/02 03:57:13;;;;;;;45.58;21.25;;;;;;;3.00;97.32;101623.22;5004148;28;20046;-78
2022/12/02 03:59:39;;;;;;;53.05;23.15;;;;;;;2.91;97.31;101617.69;5002168;28;20497;-78
2022/12/02 04:02:06;;;;;;;50.65;24.50;;;;;;;3.00;97.04;101620.63;4984825;28;20106;-77
2022/12/02 04:04:33;;;;;;;45.95;22.08;;;;;;;2.98;97.13;101609.53;4979078;28;20141;-77
2022/12/02 04:07:00;;;;;;;50.50;23.70;;;;;;;3.02;96.49;101610.19;4976127;28;20065;-78
2022/12/02 04:09:27;;;;;;;47.40;22.60;;;;;;;2.97;96.47;101610.44;4977498;28;20051;-80
2022/12/02 04:11:54;;;;;;;52.47;23.15;;;;;;;2.89;96.62;101610.03;4975545;28;20105;-78
2022/12/02 04:14:20;;;;;;;47.35;22.45;;;;;;;2.95;96.35;101619.19;4978155;28;20093;-78
2022/12/02 04:16:47;;;;;;;50.65;23.00;;;;;;;2.84;97.01;101611.19;4979686;28;20082;-79
2022/12/02 04:19:14;;;;;;;48.20;22.92;;;;;;;2.80;96.74;101613.13;4982610;28;20083;-81
2022/12/02 04:21:41;;;;;;;52.15;22.33;;;;;;;2.82;97.11;101608.72;4984252;28;20066;-80
2022/12/02 04:24:09;;;;;;;57.60;23.60;;;;;;;2.81;97.02;101601.88;4983334;28;20074;-79
2022/12/02 04:26:35;;;;;;;52.08;23.33;;;;;;;2.81;96.99;101606.19;4983812;28;20137;-79
2022/12/02 04:29:05;;;;;;;50.63;22.92;;;;;;;2.88;96.91;101602.34;4994257;28;20050;-80
2022/12/02 04:31:31;;;;;;;52.05;22.38;;;;;;;2.86;96.75;101599.00;4992699;28;20055;-79
2022/12/02 04:33:58;;;;;;;49.47;23.52;;;;;;;2.86;97.39;101599.84;4984853;28;20093;-79
2022/12/02 04:36:25;;;;;;;47.92;22.92;;;;;;;2.88;97.19;101608.34;4984600;28;20134;-78
2022/12/02 04:38:51;;;;;;;54.78;23.13;;;;;;;2.84;97.19;101599.09;4984581;28;20055;-80
2022/12/02 04:41:19;;;;;;;52.30;23.15;;;;;;;2.88;97.55;101608.34;5002559;28;20074;-80
2022/12/02 04:43:46;;;;;;;48.50;20.65;;;;;;;2.89;97.22;101609.19;5002679;28;20054;-80
2022/12/02 04:46:12;;;;;;;54.00;25.33;;;;;;;2.84;97.97;101601.66;5004000;28;20117;-81
2022/12/02 04:48:39;;;;;;;51.65;23.10;;;;;;;2.85;97.16;101613.69;5008243;28;20077;-79
2022/12/02 04:51:06;;;;;;;58.65;24.20;;;;;;;2.86;98.15;101602.44;5009562;28;20062;-80
2022/12/02 04:53:32;;;;;;;53.90;23.05;;;;;;;2.83;97.59;101601.78;5004495;28;20057;-80
2022/12/02 04:55:59;;;;;;;51.60;23.42;;;;;;;2.87;98.13;101596.34;5011013;28;20038;-79
2022/12/02 04:58:29;;;;;;;54.80;23.92;;;;;;;2.83;98.24;101594.88;5012337;28;20050;-78
2022/12/02 05:00:56;;;;;;;53.55;23.35;;;;;;;2.86;98.40;101592.09;5000715;28;20069;-79
2022/12/02 05:03:22;;;;;;;55.28;23.92;;;;;;;2.81;98.40;101586.34;4984834;28;20050;-79
2022/12/02 05:05:49;;;;;;;49.67;22.20;;;;;;;2.77;98.13;101590.03;4985633;28;20050;-79
2022/12/02 05:08:15;;;;;;;51.40;23.27;;;;;;;2.82;98.83;101598.38;4984985;28;20484;-79
2022/12/02 05:10:42;;;;;;;55.38;24.42;;;;;;;2.82;98.25;101597.53;4984729;28;20107;-79
2022/12/02 05:13:08;;;;;;;56.47;24.17;;;;;;;2.82;98.33;101588.03;4984673;28;20089;-79
2022/12/02 05:15:36;;;;;;;53.72;23.90;;;;;;;2.75;98.60;101580.69;4987829;28;20070;-79
2022/12/02 05:18:03;;;;;;;53.67;24.25;;;;;;;2.75;98.63;101578.94;5003932;28;20074;-79
2022/12/02 05:20:30;;;;;;;54.47;23.98;;;;;;;2.76;98.29;101578.03;4997540;28;20478;-79
2022/12/02 05:22:56;;;;;;;49.17;24.38;;;;;;;2.78;98.30;101568.44;4985342;28;20082;-79
2022/12/02 05:25:23;;;;;;;49.15;22.52;;;;;;;2.84;98.64;101577.56;5003300;28;20078;-79
2022/12/02 05:27:49;;;;;;;51.28;23.48;;;;;;;2.92;98.32;101576.25;5003077;28;20302;-76
2022/12/02 05:30:16;;;;;;;58.40;25.10;;;;;;;2.84;98.56;101568.06;5001436;28;20077;-79
2022/12/02 05:32:44;;;;;;;50.45;22.80;;;;;;;2.84;98.95;101575.00;5002620;28;20480;-80
2022/12/02 05:35:11;;;;;;;54.38;24.42;;;;;;;2.88;98.59;101566.16;5004046;28;20142;-80
2022/12/02 05:37:37;;;;;;;53.40;24.48;;;;;;;2.87;98.19;101565.31;5003271;28;20154;-80
2022/12/02 05:40:05;;;;;;;57.75;25.27;;;;;;;2.80;98.79;101579.53;4996439;28;20070;-79
2022/12/02 05:42:34;;;;;;;56.17;25.08;;;;;;;2.75;99.27;101568.59;4984036;28;20138;-79
2022/12/02 05:45:06;;;;;;;58.97;25.02;;;;;;;2.80;99.24;101576.94;4982606;28;20078;-81
2022/12/02 05:47:34;;;;;;;57.83;24.23;;;;;;;2.78;99.21;101571.00;4983267;28;20082;-79
2022/12/02 05:50:06;;;;;;;58.80;25.25;;;;;;;2.77;99.25;101569.34;4983297;28;20057;-80
2022/12/02 05:52:33;;;;;;;59.60;24.15;;;;;;;2.83;99.25;101563.84;4983848;28;20075;-80
2022/12/02 05:55:06;;;;;;;59.17;25.58;;;;;;;2.81;99.36;101577.78;4980287;28;20078;-79
2022/12/02 05:57:33;;;;;;;65.15;24.95;;;;;;;2.79;98.83;101564.09;4980608;28;20070;-80
2022/12/02 06:00:13;;;;;;;57.03;24.73;;;;;;;2.83;99.59;101573.34;4983275;28;20066;-80
2022/12/02 06:02:43;;;;;;;61.17;25.13;;;;;;;2.82;99.70;101569.09;4983845;28;20126;-81
2022/12/02 06:05:31;;;;;;;62.30;25.30;;;;;;;2.82;99.54;101563.94;4983414;28;20046;-81
2022/12/02 06:08:01;;;;;;;57.85;25.67;;;;;;;2.91;100.00;101566.81;4985761;28;20092;-81
2022/12/02 06:10:29;;;;;;;58.50;24.33;;;;;;;2.91;99.25;101561.66;5004190;28;20149;-82
2022/12/02 06:12:59;;;;;;;53.35;25.27;;;;;;;2.88;99.43;101555.81;5002665;28;20046;-82
2022/12/02 06:15:32;;;;;;;62.85;24.52;;;;;;;2.88;99.34;101555.81;4999383;28;20077;-81
2022/12/02 06:17:58;;;;;;;59.65;24.92;;;;;;;2.91;99.63;101540.13;4982999;28;20084;-81
2022/12/02 06:20:28;;;;;;;58.60;24.52;;;;;;;2.91;99.75;101551.31;4983652;28;20082;-82
2022/12/02 06:22:57;;;;;;;62.75;26.02;;;;;;;2.90;99.82;101553.97;4983923;28;20055;-82
2022/12/02 06:25:26;;;;;;;64.55;26.23;;;;;;;2.86;100.00;101542.97;4983734;28;20105;-81
2022/12/02 06:27:56;;;;;;;63.85;25.80;;;;;;;2.86;99.56;101542.13;4984968;28;20051;-80
2022/12/02 06:30:22;;;;;;;59.63;23.98;;;;;;;2.86;99.75;101542.97;4981925;28;20478;-81
2022/12/02 06:32:55;;;;;;;67.97;27.00;;;;;;;2.88;99.70;101543.72;4989516;28;20049;-80
2022/12/02 06:35:25;;;;;;;62.72;25.58;;;;;;;2.92;100.00;101547.81;5000563;28;20085;-82
2022/12/02 06:37:56;;;;;;;61.88;25.67;;;;;;;2.90;100.00;101549.63;4998095;28;20128;-82
2022/12/02 06:40:25;;;;;;;61.42;25.95;;;;;;;2.91;100.00;101551.31;5000941;28;20512;-81
2022/12/02 06:42:52;;;;;;;59.22;25.45;;;;;;;2.85;100.00;101556.81;4993510;28;20070;-81
2022/12/02 06:45:24;;;;;;;59.15;23.52;;;;;;;2.83;100.00;101556.09;4999204;28;20051;-79
2022/12/02 06:48:08;;;;;;;62.15;25.48;;;;;;;2.81;100.00;101560.50;4993493;28;20074;-80
2022/12/02 06:50:37;;;;;;;60.50;25.63;;;;;;;2.85;100.00;101554.22;4990942;28;20053;-81
2022/12/02 06:53:30;;;;;;;60.63;25.20;;;;;;;2.83;100.00;101543.16;4990081;28;20528;-80
2022/12/02 06:56:00;;;;;;;59.33;25.65;;;;;;;2.86;100.00;101557.66;4986310;28;20077;-80
2022/12/02 06:58:32;;;;;;;61.05;25.45;;;;;;;2.89;100.00;101553.16;4993104;28;20144;-80
2022/12/02 07:01:13;;;;;;;63.13;25.95;;;;;;;2.88;100.00;101548.88;4996292;28;20050;-80
2022/12/02 07:03:45;;;;;;;57.45;24.50;;;;;;;2.90;100.00;101559.97;4998703;28;20054;-80
2022/12/02 07:06:15;;;;;;;54.65;24.35;;;;;;;2.83;100.00;101548.34;4999112;28;20051;-79
2022/12/02 07:08:43;;;;;;;56.35;23.92;;;;;;;2.93;100.00;101556.41;4999511;28;20057;-80
2022/12/02 07:11:20;;;;;;;56.35;24.95;;;;;;;2.96;100.00;101556.22;4994178;28;20070;-79
2022/12/02 07:13:47;;;;;;;67.00;25.63;;;;;;;2.93;100.00;101556.41;4997389;28;20094;-80
2022/12/02 07:16:34;;;;;;;63.42;26.95;;;;;;;3.00;100.00;101563.75;4988148;28;20074;-81
2022/12/02 07:19:01;;;;;;;61.97;26.17;;;;;;;2.97;100.00;101555.31;4995099;28;20421;-81
2022/12/02 07:21:28;;;;;;;66.78;25.85;;;;;;;3.00;100.00;101555.97;4998553;28;20134;-81
2022/12/02 07:23:57;;;;;;;60.13;26.00;;;;;;;3.03;100.00;101554.97;4998199;28;20477;-80
2022/12/02 07:26:24;;;;;;;59.72;24.85;;;;;;;2.97;100.00;101552.72;4998298;28;20540;-80
2022/12/02 07:28:59;;;;;;;60.80;25.88;;;;;;;2.92;100.00;101550.41;4999111;28;20077;-81
2022/12/02 07:31:28;;;;;;;64.25;25.95;;;;;;;2.96;100.00;101554.47;4997691;28;20055;-80
2022/12/02 07:33:54;;;;;;;64.15;26.13;;;;;;;2.95;100.00;101551.97;4999454;28;20130;-81
2022/12/02 07:36:21;;;;;;;64.80;25.70;;;;;;;2.93;100.00;101552.06;4998719;28;20129;-81
2022/12/02 07:38:48;;;;;;;67.70;26.85;;;;;;;2.94;100.00;101551.16;4996829;28;20100;-81
2022/12/02 07:41:17;;;;;;;67.10;26.42;;;;;;;2.99;100.00;101551.72;4997409;28;20050;-79
2022/12/02 07:43:44;;;;;;;68.65;25.95;;;;;;;2.96;100.00;101557.06;4999578;28;20054;-78
2022/12/02 07:46:10;;;;;;;74.10;28.73;;;;;;;2.91;100.00;101546.13;4992026;28;20085;-80
2022/12/02 07:48:37;;;;;;;65.43;26.10;;;;;;;2.96;100.00;101549.31;4987987;28;20646;-81
2022/12/02 07:51:04;;;;;;;60.95;26.25;;;;;;;2.97;100.00;101544.97;5005776;28;20053;-80
2022/12/02 07:53:30;;;;;;;69.47;27.02;;;;;;;2.91;100.00;101540.97;5004289;28;20046;-81
2022/12/02 07:55:57;;;;;;;64.40;27.70;;;;;;;2.94;100.00;101547.72;5004246;28;20166;-80
2022/12/02 07:58:26;;;;;;;71.05;26.50;;;;;;;2.93;100.00;101536.56;5004341;28;20519;-81
2022/12/02 08:00:53;;;;;;;76.60;28.48;;;;;;;2.97;100.00;101550.97;5000808;28;20050;-81
2022/12/02 08:03:19;;;;;;;72.55;27.50;;;;;;;2.95;100.00;101542.47;4986110;28;20082;-81
2022/12/02 08:05:46;;;;;;;78.03;28.20;;;;;;;2.97;100.00;101548.38;5006238;28;20058;-81
2022/12/02 08:08:13;;;;;;;66.50;27.10;;;;;;;2.93;100.00;101546.06;5018756;23;20070;-80
2022/12/02 08:10:39;;;;;;;73.60;27.80;;;;;;;2.96;100.00;101532.97;4997269;28;20089;-79
2022/12/02 08:13:06;;;;;;;76.55;26.77;;;;;;;3.18;100.00;101536.03;4996434;28;20480;-79
2022/12/02 08:15:34;;;;;;;82.50;29.23;;;;;;;3.05;100.00;101541.97;4997012;28;20082;-79
2022/12/02 08:18:00;;;;;;;72.18;26.80;;;;;;;3.05;100.00;101539.38;4996318;28;20134;-79
2022/12/02 08:20:27;;;;;;;76.25;26.40;;;;;;;3.09;100.00;101543.47;4992182;28;20074;-79
2022/12/02 08:22:54;;;;;;;77.13;29.63;;;;;;;3.00;100.00;101545.63;4977766;28;20050;-80
2022/12/02 08:25:21;;;;;;;77.53;27.50;;;;;;;3.04;100.00;101543.72;4995959;28;20492;-79
2022/12/02 08:27:47;;;;;;;69.63;27.48;;;;;;;3.04;100.00;101540.28;4995844;28;20110;-80
2022/12/02 08:30:16;;;;;;;79.15;28.80;;;;;;;3.08;100.00;101539.22;4994028;28;20113;-79
2022/12/02 08:32:44;;;;;;;71.55;27.50;;;;;;;3.16;100.00;101539.63;4989896;28;20039;-80
2022/12/02 08:35:11;;;;;;;80.50;29.42;;;;;;;3.09;100.00;101539.13;4976171;28;20137;-79
2022/12/02 08:37:38;;;;;;;77.07;29.95;;;;;;;3.07;100.00;101535.78;4974634;28;20126;-78
2022/12/02 08:40:06;;;;;;;81.10;29.23;;;;;;;3.12;100.00;101532.94;4984014;28;20441;-79
2022/12/02 08:42:33;;;;;;;85.40;30.02;;;;;;;3.07;100.00;101535.78;4974696;28;20129;-78
2022/12/02 08:44:59;;;;;;;86.85;29.27;;;;;;;3.08;100.00;101539.22;4974748;28;20090;-78
2022/12/02 08:47:26;;;;;;;87.43;30.42;;;;;;;3.09;100.00;101543.47;4975769;28;20089;-77
2022/12/02 08:49:54;;;;;;;83.05;30.60;;;;;;;3.19;100.00;101545.44;4973675;28;20146;-80
2022/12/02 08:52:21;;;;;;;90.10;29.02;;;;;;;3.14;100.00;101531.94;4974080;28;20576;-79
2022/12/02 08:54:47;;;;;;;80.82;29.05;;;;;;;3.04;100.00;101540.28;4974187;28;20141;-79
2022/12/02 08:57:14;;;;;;;83.55;29.42;;;;;;;2.98;100.00;101542.31;4974317;28;20057;-79
2022/12/02 08:59:41;;;;;;;88.15;31.10;;;;;;;2.93;100.00;101544.31;4973516;28;20085;-78
2022/12/02 09:02:07;;;;;;;76.10;28.48;;;;;;;2.90;100.00;101547.06;4974234;28;20046;-79
2022/12/02 09:04:34;;;;;;;80.32;29.60;;;;;;;2.90;100.00;101553.97;4975488;28;20141;-78
2022/12/02 09:07:02;;;;;;;86.60;28.70;;;;;;;2.90;100.00;101544.47;4978920;28;20133;-79
2022/12/02 09:09:29;;;;;;;80.63;27.00;;;;;;;2.85;100.00;101545.63;4992858;28;20089;-78
2022/12/02 09:11:55;;;;;;;79.25;28.58;;;;;;;2.73;100.00;101560.09;4993656;28;20457;-79
2022/12/02 09:14:22;;;;;;;75.55;27.45;;;;;;;2.76;100.00;101562.50;4993734;28;20081;-75
2022/12/02 09:16:49;;;;;;;82.18;30.85;;;;;;;2.68;100.00;101554.34;4991773;28;20051;-79
2022/12/02 09:19:16;;;;;;;83.78;28.10;;;;;;;2.74;100.00;101559.16;4993031;28;20058;-79
2022/12/02 09:21:42;;;;;;;78.68;26.73;;;;;;;2.72;100.00;101555.84;4994108;28;20089;-77
2022/12/02 09:24:10;;;;;;;66.57;26.35;;;;;;;2.71;100.00;101549.00;4993032;28;20081;-79
2022/12/02 09:26:37;;;;;;;82.50;29.35;;;;;;;2.75;100.00;101550.50;4994219;28;20057;-79
2022/12/02 09:29:04;;;;;;;80.57;29.88;;;;;;;2.73;100.00;101560.09;4998366;28;20051;-81
2022/12/02 09:31:30;;;;;;;72.93;28.05;;;;;;;2.76;100.00;101557.34;4986027;28;20074;-76
2022/12/02 09:33:57;;;;;;;73.00;27.08;;;;;;;2.82;100.00;101545.84;4982360;28;20153;-79
2022/12/02 09:36:23;;;;;;;69.95;26.20;;;;;;;2.89;100.00;101560.91;4994524;28;20088;-81
2022/12/02 09:38:50;;;;;;;77.93;27.65;;;;;;;2.73;100.00;101523.06;4993896;28;20527;-79
2022/12/02 09:41:18;;;;;;;77.45;28.70;;;;;;;2.86;100.00;101555.91;4994249;28;20133;-77
2022/12/02 09:43:45;;;;;;;78.85;28.60;;;;;;;2.92;100.00;101547.81;4993983;28;20054;-79
2022/12/02 09:46:12;;;;;;;73.15;27.80;;;;;;;2.99;100.00;101550.88;4993692;28;20242;-79
2022/12/02 09:48:39;;;;;;;75.82;28.52;;;;;;;3.02;100.00;101536.97;4989903;28;20452;-79
2022/12/02 09:51:05;;;;;;;75.43;28.63;;;;;;;3.04;100.00;101535.13;4974665;28;20046;-79
2022/12/02 09:53:36;;;;;;;76.25;28.17;;;;;;;2.99;100.00;101537.97;4977554;28;20047;-76
2022/12/02 09:56:02;;;;;;;74.53;29.83;;;;;;;3.04;100.00;101535.13;4988979;28;20050;-78
2022/12/02 09:58:31;;;;;;;75.25;29.52;;;;;;;2.96;100.00;101538.97;4992553;28;20092;-79
2022/12/02 10:00:58;;;;;;;81.55;30.08;;;;;;;2.94;100.00;101534.78;4986071;28;20540;-79
2022/12/02 10:03:28;;;;;;;73.35;29.33;;;;;;;3.01;100.00;101536.13;4972956;28;20058;-78
2022/12/02 10:05:55;;;;;;;70.18;27.88;;;;;;;3.08;100.00;101532.28;4974319;28;20558;-79
2022/12/02 10:08:25;;;;;;;80.50;31.10;;;;;;;3.09;100.00;101531.38;4973904;28;20086;-80
2022/12/02 10:10:55;;;;;;;72.63;28.63;;;;;;;3.05;100.00;101532.47;4977907;28;20450;-79
2022/12/02 10:13:24;;;;;;;70.45;29.73;;;;;;;3.06;100.00;101538.47;4990823;28;20084;-78
2022/12/02 10:15:52;;;;;;;68.43;27.38;;;;;;;3.06;100.00;101539.28;4972721;28;20506;-78
2022/12/02 10:18:22;;;;;;;68.53;28.33;;;;;;;3.05;100.00;101534.22;4972313;28;20129;-78
2022/12/02 10:20:49;;;;;;;70.30;28.83;;;;;;;3.09;100.00;101538.28;4972886;28;20517;-78
2022/12/02 10:23:17;;;;;;;78.20;28.13;;;;;;;3.13;100.00;101532.03;4973027;28;20058;-79
2022/12/02 10:25:46;;;;;;;69.30;27.00;;;;;;;3.05;100.00;101524.69;4974831;28;20130;-79
2022/12/02 10:28:27;;;;;;;69.15;27.23;;;;;;;3.11;100.00;101531.28;4974229;28;20132;-79
2022/12/02 10:31:00;;;;;;;68.18;27.85;;;;;;;3.12;100.00;101527.78;4974765;28;20057;-78
2022/12/02 10:33:28;;;;;;;67.20;26.75;;;;;;;3.09;100.00;101525.38;4973651;28;20141;-78
2022/12/02 10:35:55;;;;;;;63.22;25.80;;;;;;;3.15;100.00;101517.25;4974006;28;20118;-78
2022/12/02 10:38:31;;;;;;;67.30;26.33;;;;;;;3.13;100.00;101516.50;4973164;28;20138;-78
2022/12/02 10:41:23;;;;;;;69.30;28.10;;;;;;;3.16;100.00;101509.41;4973859;28;20133;-79
2022/12/02 10:44:13;;;;;;;66.13;27.45;;;;;;;3.20;100.00;101504.91;4973653;28;20086;-80
2022/12/02 10:46:41;;;;;;;71.40;28.25;;;;;;;3.27;100.00;101501.88;4974250;28;20060;-80
2022/12/02 10:49:29;;;;;;;61.85;26.25;;;;;;;3.26;100.00;101501.97;4972638;28;20482;-80
2022/12/02 10:52:00;;;;;;;67.22;29.25;;;;;;;3.30;100.00;101496.53;4971223;28;20086;-79
2022/12/02 10:54:30;;;;;;;62.47;27.88;;;;;;;3.37;100.00;101497.00;4972869;28;20133;-78
2022/12/02 10:56:59;;;;;;;70.28;27.40;;;;;;;3.41;100.00;101495.91;4973540;28;20050;-79
2022/12/02 10:59:27;;;;;;;67.97;27.90;;;;;;;3.41;100.00;101505.41;4972759;28;20078;-77
2022/12/02 11:01:56;;;;;;;66.57;28.27;;;;;;;3.42;100.00;101497.56;4972940;28;20488;-80
2022/12/02 11:04:22;;;;;;;65.00;28.13;;;;;;;3.39;100.00;101500.31;4976561;28;20055;-79
2022/12/02 11:06:54;;;;;;;62.50;26.95;;;;;;;3.40;100.00;101493.41;4972986;28;20061;-77
2022/12/02 11:09:23;;;;;;;67.65;28.48;;;;;;;3.39;100.00;101482.22;4972106;28;20490;-81
2022/12/02 11:11:50;;;;;;;58.25;28.00;;;;;;;3.32;100.00;101480.91;4972770;28;20140;-78
2022/12/02 11:14:50;;;;;;;66.20;29.05;;;;;;;3.44;100.00;101485.38;4972276;28;20146;-80
2022/12/02 11:17:47;;;;;;;62.97;26.55;;;;;;;3.34;100.00;101481.66;4972704;28;20070;-78
2022/12/02 11:20:36;;;;;;;68.30;27.80;;;;;;;3.24;100.00;101483.13;4972208;28;20149;-77
2022/12/02 11:23:20;;;;;;;67.22;28.00;;;;;;;3.28;100.00;101477.69;4972557;28;20078;-78
2022/12/02 11:26:08;;;;;;;64.32;28.17;;;;;;;3.28;100.00;101474.25;4977167;28;20055;-78